Time;durP1;ratioP1;P1;durP2;ratioP2;P2;SDS_P1;SDS_P2;PMS_P1;PMS_P2;Temp;Humidity;BMP_temperature;BMP_pressure;BME280_temperature;BME280_humidity;BME280_pressure;Samples;Min_cycle;Max_cycle;Signal;HPM_P1;HPM_P2
2022/07/20 00:00:19;;;;;;;;;;;26.60;48.10;;;;;;5059809;28;19982;-73
2022/07/20 00:02:45;;;;;;;;;;;26.60;48.60;;;;;;5052754;28;19974;-73
2022/07/20 00:05:10;;;;;;;;;;;26.60;48.80;;;;;;5059813;28;20274;-73
2022/07/20 00:07:36;;;;;;;;;;;26.60;49.10;;;;;;5054182;28;19935;-73
2022/07/20 00:12:45;;;;;;;;;;;26.40;48.50;;;;;;5050437;28;19920;-73
2022/07/20 00:15:11;;;;;;;;;;;26.40;48.80;;;;;;5050051;28;19920;-73
2022/07/20 00:17:36;;;;;;;;;;;26.30;49.30;;;;;;5050052;28;20382;-72
2022/07/20 00:20:03;;;;;;;;;;;26.20;49.30;;;;;;5050293;28;19924;-73
2022/07/20 00:22:28;;;;;;;;;;;26.10;49.20;;;;;;5049784;28;20021;-73
2022/07/20 00:24:54;;;;;;;;;;;26.10;49.40;;;;;;5049946;28;19959;-73
2022/07/20 00:27:19;;;;;;;;;;;26.00;49.40;;;;;;5049941;28;19967;-72
2022/07/20 00:29:45;;;;;;;;;;;26.00;49.90;;;;;;5050080;28;19921;-73
2022/07/20 00:32:10;;;;;;;;;;;25.90;50.20;;;;;;5050481;28;19975;-73
2022/07/20 00:34:36;;;;;;;;;;;25.80;49.70;;;;;;5050283;28;19926;-73
2022/07/20 00:37:01;;;;;;;;;;;25.70;50.10;;;;;;5049549;28;20428;-73
2022/07/20 00:39:27;;;;;;;;;;;25.70;49.80;;;;;;5050222;28;19920;-73
2022/07/20 00:41:52;;;;;;;;;;;25.70;50.00;;;;;;5048751;28;20382;-73
2022/07/20 00:44:18;;;;;;;;;;;25.60;50.00;;;;;;5049712;28;19924;-73
2022/07/20 00:46:44;;;;;;;;;;;25.50;50.20;;;;;;5062739;28;19928;-73
2022/07/20 00:49:10;;;;;;;;;;;25.50;50.70;;;;;;5049521;28;19985;-73
2022/07/20 00:51:37;;;;;;;;;;;25.40;50.50;;;;;;5062619;28;19920;-73
2022/07/20 00:54:04;;;;;;;;;;;25.30;50.50;;;;;;5049638;28;19927;-73
2022/07/20 00:56:29;;;;;;;;;;;25.30;50.80;;;;;;5049535;28;19925;-73
2022/07/20 00:58:55;;;;;;;;;;;25.20;50.60;;;;;;5049692;28;20349;-73
2022/07/20 01:01:20;;;;;;;;;;;25.20;51.40;;;;;;5049329;28;20383;-73
2022/07/20 01:03:46;;;;;;;;;;;25.10;51.30;;;;;;5049152;28;19921;-73
2022/07/20 01:06:12;;;;;;;;;;;25.00;51.10;;;;;;5049040;28;19974;-73
2022/07/20 01:08:37;;;;;;;;;;;25.00;51.10;;;;;;5049513;28;19931;-73
2022/07/20 01:11:03;;;;;;;;;;;24.90;51.90;;;;;;5049421;28;19924;-73
2022/07/20 01:13:29;;;;;;;;;;;24.90;51.90;;;;;;5049075;28;19921;-73
2022/07/20 01:15:54;;;;;;;;;;;24.80;52.80;;;;;;5048473;28;20065;-71
2022/07/20 01:18:20;;;;;;;;;;;24.70;51.70;;;;;;5050104;28;19974;-73
2022/07/20 01:20:47;;;;;;;;;;;24.70;52.90;;;;;;5049302;28;20272;-73
2022/07/20 01:23:13;;;;;;;;;;;24.60;53.60;;;;;;5048371;28;19928;-73
2022/07/20 01:25:38;;;;;;;;;;;24.60;53.50;;;;;;5051838;28;19928;-73
2022/07/20 01:28:05;;;;;;;;;;;24.50;52.50;;;;;;5052871;28;20399;-73
2022/07/20 01:30:31;;;;;;;;;;;24.50;53.80;;;;;;5053468;28;19925;-73
2022/07/20 01:32:57;;;;;;;;;;;24.40;54.30;;;;;;5052947;28;19920;-73
2022/07/20 01:35:22;;;;;;;;;;;24.30;54.80;;;;;;5053975;28;19924;-73
2022/07/20 01:37:48;;;;;;;;;;;24.20;55.90;;;;;;5053368;28;19928;-73
2022/07/20 01:40:13;;;;;;;;;;;24.20;55.30;;;;;;5054564;28;19924;-73
2022/07/20 01:42:39;;;;;;;;;;;24.10;56.00;;;;;;5052850;28;19924;-73
2022/07/20 01:45:05;;;;;;;;;;;24.10;56.30;;;;;;5053633;28;19920;-73
2022/07/20 01:47:30;;;;;;;;;;;24.00;55.50;;;;;;5053088;28;20379;-73
2022/07/20 01:49:56;;;;;;;;;;;23.90;55.80;;;;;;5052699;28;19924;-73
2022/07/20 01:52:21;;;;;;;;;;;23.80;56.20;;;;;;5053090;28;19920;-73
2022/07/20 01:54:47;;;;;;;;;;;23.70;56.60;;;;;;5069383;28;19928;-72
2022/07/20 01:57:12;;;;;;;;;;;23.70;55.00;;;;;;5072242;28;20346;-73
2022/07/20 01:59:38;;;;;;;;;;;23.60;54.80;;;;;;5058805;28;20563;-73
2022/07/20 02:02:03;;;;;;;;;;;23.70;55.00;;;;;;5061895;28;19931;-73
2022/07/20 02:04:29;;;;;;;;;;;23.70;55.10;;;;;;5064661;28;19932;-73
2022/07/20 02:06:54;;;;;;;;;;;23.60;54.50;;;;;;5062868;28;19920;-73
2022/07/20 02:09:20;;;;;;;;;;;23.60;54.60;;;;;;5066741;28;20409;-73
2022/07/20 02:11:46;;;;;;;;;;;23.60;54.80;;;;;;5052505;28;20449;-73
2022/07/20 02:14:11;;;;;;;;;;;23.60;55.00;;;;;;5057011;28;20440;-73
2022/07/20 02:16:37;;;;;;;;;;;23.50;54.90;;;;;;5051901;28;19924;-73
2022/07/20 02:19:02;;;;;;;;;;;23.50;54.60;;;;;;5052540;28;19931;-73
2022/07/20 02:21:29;;;;;;;;;;;23.50;54.60;;;;;;5065276;28;19967;-74
2022/07/20 02:23:55;;;;;;;;;;;23.50;55.20;;;;;;5052165;28;19975;-73
2022/07/20 02:26:20;;;;;;;;;;;23.40;56.30;;;;;;5052474;28;19968;-73
2022/07/20 02:28:46;;;;;;;;;;;23.40;56.30;;;;;;5064941;28;19966;-74
2022/07/20 02:31:12;;;;;;;;;;;23.40;56.50;;;;;;5052264;28;20294;-73
2022/07/20 02:33:38;;;;;;;;;;;23.40;55.80;;;;;;5052318;28;19928;-73
2022/07/20 02:36:03;;;;;;;;;;;23.30;55.50;;;;;;5051010;28;19921;-73
2022/07/20 02:38:29;;;;;;;;;;;23.30;55.40;;;;;;5052111;28;19927;-73
2022/07/20 02:40:54;;;;;;;;;;;23.30;55.50;;;;;;5064569;28;19925;-73
2022/07/20 02:43:21;;;;;;;;;;;23.30;55.20;;;;;;5063691;28;19920;-73
2022/07/20 02:45:46;;;;;;;;;;;23.30;55.80;;;;;;5065789;28;20349;-74
2022/07/20 02:48:12;;;;;;;;;;;23.30;55.80;;;;;;5058744;28;20015;-73
2022/07/20 02:50:41;;;;;;;;;;;23.30;55.90;;;;;;5052004;28;19931;-74
2022/07/20 02:53:07;;;;;;;;;;;23.30;55.70;;;;;;5050916;28;20422;-74
2022/07/20 02:55:32;;;;;;;;;;;23.30;57.20;;;;;;5052029;28;19974;-74
2022/07/20 02:57:58;;;;;;;;;;;23.30;55.90;;;;;;5049959;28;19972;-74
2022/07/20 03:00:24;;;;;;;;;;;23.30;55.90;;;;;;5052173;28;19964;-75
2022/07/20 03:02:49;;;;;;;;;;;23.30;55.50;;;;;;5051462;28;20365;-74
2022/07/20 03:05:15;;;;;;;;;;;23.30;55.20;;;;;;5051018;28;20880;-75
2022/07/20 03:07:41;;;;;;;;;;;23.30;56.60;;;;;;5055176;28;19926;-75
2022/07/20 03:10:07;;;;;;;;;;;23.20;56.20;;;;;;5060743;28;19921;-75
2022/07/20 03:12:33;;;;;;;;;;;23.20;55.90;;;;;;5055521;28;19978;-75
2022/07/20 03:14:58;;;;;;;;;;;23.20;57.50;;;;;;5059827;28;19921;-75
2022/07/20 03:17:24;;;;;;;;;;;23.10;57.60;;;;;;5051022;28;19921;-73
2022/07/20 03:19:49;;;;;;;;;;;23.00;58.00;;;;;;5062399;28;19920;-74
2022/07/20 03:22:15;;;;;;;;;;;23.00;57.90;;;;;;5068648;28;20402;-74
2022/07/20 03:24:41;;;;;;;;;;;22.90;58.60;;;;;;5049532;28;19921;-74
2022/07/20 03:27:06;;;;;;;;;;;22.80;57.90;;;;;;5063517;28;19931;-73
2022/07/20 03:29:32;;;;;;;;;;;22.80;57.30;;;;;;5049848;28;19924;-73
2022/07/20 03:31:57;;;;;;;;;;;22.80;56.70;;;;;;5054584;28;19928;-74
2022/07/20 03:34:23;;;;;;;;;;;22.80;56.30;;;;;;5070566;28;19921;-74
2022/07/20 03:36:49;;;;;;;;;;;22.90;56.30;;;;;;5069651;28;19928;-74
2022/07/20 03:39:14;;;;;;;;;;;22.90;56.30;;;;;;5070220;28;19989;-74
2022/07/20 03:41:40;;;;;;;;;;;22.90;56.40;;;;;;5066231;28;19924;-73
2022/07/20 03:44:06;;;;;;;;;;;22.90;56.10;;;;;;5060563;28;19970;-74
2022/07/20 03:46:31;;;;;;;;;;;22.90;56.90;;;;;;5069301;28;19990;-74
2022/07/20 03:48:57;;;;;;;;;;;22.90;57.00;;;;;;5059211;28;19988;-75
2022/07/20 03:51:22;;;;;;;;;;;22.90;57.00;;;;;;5066044;28;19924;-75
2022/07/20 03:53:48;;;;;;;;;;;22.90;57.00;;;;;;5069259;28;19920;-75
2022/07/20 03:56:13;;;;;;;;;;;22.90;57.70;;;;;;5068211;28;20023;-75
2022/07/20 03:58:39;;;;;;;;;;;22.80;57.70;;;;;;5059520;28;19920;-74
2022/07/20 04:01:04;;;;;;;;;;;22.80;57.80;;;;;;5052534;28;19929;-75
2022/07/20 04:03:30;;;;;;;;;;;22.80;59.40;;;;;;5058896;28;19921;-75
2022/07/20 04:05:55;;;;;;;;;;;22.70;59.00;;;;;;5062214;28;19921;-75
2022/07/20 04:08:21;;;;;;;;;;;22.70;59.50;;;;;;5048468;28;19920;-75
2022/07/20 04:10:47;;;;;;;;;;;22.60;59.20;;;;;;5062240;28;19921;-74
2022/07/20 04:13:12;;;;;;;;;;;22.60;59.90;;;;;;5058881;28;20443;-74
2022/07/20 04:15:38;;;;;;;;;;;22.50;59.20;;;;;;5052548;28;20018;-75
2022/07/20 04:18:03;;;;;;;;;;;22.50;59.60;;;;;;5058681;28;20023;-75
2022/07/20 04:20:29;;;;;;;;;;;22.50;60.80;;;;;;5052610;28;19921;-74
2022/07/20 04:22:54;;;;;;;;;;;22.50;60.80;;;;;;5049194;28;20390;-75
2022/07/20 04:25:22;;;;;;;;;;;22.50;60.30;;;;;;5064414;28;19925;-75
2022/07/20 04:27:48;;;;;;;;;;;22.50;61.00;;;;;;5060127;28;19931;-74
2022/07/20 04:30:14;;;;;;;;;;;22.50;62.10;;;;;;5062874;28;19925;-74
2022/07/20 04:32:39;;;;;;;;;;;22.40;59.90;;;;;;5050249;28;19921;-74
2022/07/20 04:35:05;;;;;;;;;;;22.50;61.30;;;;;;5062887;28;19984;-75
2022/07/20 04:37:30;;;;;;;;;;;22.50;61.40;;;;;;5049285;28;19924;-74
2022/07/20 04:39:56;;;;;;;;;;;22.50;61.10;;;;;;5065242;28;19928;-74
2022/07/20 04:42:21;;;;;;;;;;;22.50;59.90;;;;;;5069516;28;19920;-75
2022/07/20 04:44:47;;;;;;;;;;;22.50;60.60;;;;;;5053499;28;19928;-75
2022/07/20 04:47:12;;;;;;;;;;;22.60;60.70;;;;;;5049719;28;20601;-74
2022/07/20 04:49:38;;;;;;;;;;;22.60;59.70;;;;;;5049817;28;19925;-75
2022/07/20 04:52:03;;;;;;;;;;;22.70;59.60;;;;;;5049864;28;19920;-74
2022/07/20 04:54:29;;;;;;;;;;;22.70;59.90;;;;;;5051885;28;19927;-75
2022/07/20 04:56:55;;;;;;;;;;;22.80;60.30;;;;;;5060389;28;19982;-74
2022/07/20 04:59:20;;;;;;;;;;;22.90;60.20;;;;;;5051395;28;19973;-74
2022/07/20 05:01:46;;;;;;;;;;;22.90;59.60;;;;;;5069298;28;20294;-74
2022/07/20 05:04:11;;;;;;;;;;;23.00;59.00;;;;;;5053733;28;19920;-74
2022/07/20 05:06:37;;;;;;;;;;;23.10;58.20;;;;;;5048459;28;19920;-74
2022/07/20 05:09:03;;;;;;;;;;;23.10;58.60;;;;;;5049784;28;19928;-74
2022/07/20 05:11:30;;;;;;;;;;;23.20;58.50;;;;;;5049623;28;19920;-74
2022/07/20 05:13:56;;;;;;;;;;;23.20;57.70;;;;;;5050877;28;19928;-74
2022/07/20 05:16:21;;;;;;;;;;;23.30;58.10;;;;;;5067642;28;20301;-74
2022/07/20 05:18:47;;;;;;;;;;;23.30;57.90;;;;;;5067919;28;19920;-74
2022/07/20 05:21:12;;;;;;;;;;;23.40;58.00;;;;;;5060491;28;19971;-74
2022/07/20 05:23:38;;;;;;;;;;;23.50;58.20;;;;;;5048771;28;19931;-74
2022/07/20 05:26:04;;;;;;;;;;;23.50;58.30;;;;;;5048869;28;20028;-74
2022/07/20 05:28:29;;;;;;;;;;;23.50;58.10;;;;;;5049188;28;20293;-74
2022/07/20 05:30:55;;;;;;;;;;;23.60;58.50;;;;;;5048861;28;19921;-74
2022/07/20 05:33:20;;;;;;;;;;;23.60;58.60;;;;;;5048630;28;19920;-75
2022/07/20 05:35:46;;;;;;;;;;;23.70;58.50;;;;;;5049016;28;20379;-74
2022/07/20 05:38:13;;;;;;;;;;;23.70;58.00;;;;;;5049039;28;19921;-72
2022/07/20 05:40:38;;;;;;;;;;;23.70;58.00;;;;;;5044653;28;19987;-74
2022/07/20 05:43:04;;;;;;;;;;;23.80;58.10;;;;;;5042445;28;19924;-74
2022/07/20 05:45:29;;;;;;;;;;;23.80;58.00;;;;;;5048522;28;19920;-73
2022/07/20 05:47:55;;;;;;;;;;;23.90;58.50;;;;;;5045105;28;19921;-73
2022/07/20 05:50:20;;;;;;;;;;;23.90;58.60;;;;;;5037216;28;19924;-74
2022/07/20 05:52:46;;;;;;;;;;;23.90;58.10;;;;;;5048862;28;20321;-74
2022/07/20 05:55:11;;;;;;;;;;;24.00;57.90;;;;;;5048661;28;19943;-74
2022/07/20 05:57:37;;;;;;;;;;;24.00;58.30;;;;;;5048890;28;19921;-75
2022/07/20 06:00:03;;;;;;;;;;;24.00;58.50;;;;;;5057467;28;19965;-75
2022/07/20 06:02:28;;;;;;;;;;;24.10;58.30;;;;;;5053729;28;19920;-74
2022/07/20 06:04:54;;;;;;;;;;;24.10;58.00;;;;;;5049203;28;20062;-74
2022/07/20 06:07:19;;;;;;;;;;;24.20;58.00;;;;;;5048678;28;20400;-74
2022/07/20 06:09:45;;;;;;;;;;;24.20;58.30;;;;;;5057609;28;19920;-73
2022/07/20 06:12:10;;;;;;;;;;;24.20;58.60;;;;;;5055095;28;19925;-72
2022/07/20 06:14:36;;;;;;;;;;;24.30;58.90;;;;;;5052496;28;19924;-72
2022/07/20 06:17:02;;;;;;;;;;;24.40;59.00;;;;;;5065346;28;19920;-72
2022/07/20 06:19:27;;;;;;;;;;;24.40;59.10;;;;;;5052371;28;19932;-72
2022/07/20 06:21:53;;;;;;;;;;;24.50;58.90;;;;;;5053150;28;19967;-72
2022/07/20 06:24:19;;;;;;;;;;;24.50;59.50;;;;;;5058943;28;19924;-72
2022/07/20 06:26:45;;;;;;;;;;;24.60;59.70;;;;;;5057964;28;19921;-72
2022/07/20 06:29:10;;;;;;;;;;;24.60;59.00;;;;;;5050414;28;20008;-72
2022/07/20 06:31:36;;;;;;;;;;;24.70;59.30;;;;;;5052243;28;20540;-72
2022/07/20 06:34:04;;;;;;;;;;;24.80;59.30;;;;;;5052285;28;19925;-72
2022/07/20 06:36:30;;;;;;;;;;;24.90;59.50;;;;;;5052359;28;19967;-72
2022/07/20 06:38:55;;;;;;;;;;;24.90;60.00;;;;;;5051976;28;19975;-72
2022/07/20 06:41:21;;;;;;;;;;;25.00;59.80;;;;;;5051893;28;19920;-72
2022/07/20 06:43:46;;;;;;;;;;;25.10;59.20;;;;;;5050635;28;19921;-72
2022/07/20 06:46:12;;;;;;;;;;;25.20;59.00;;;;;;5052090;28;19990;-72
2022/07/20 06:48:37;;;;;;;;;;;25.30;58.80;;;;;;5052096;28;20548;-73
2022/07/20 06:51:03;;;;;;;;;;;25.40;59.10;;;;;;5051247;28;19927;-72
2022/07/20 06:53:29;;;;;;;;;;;25.50;58.90;;;;;;5052575;28;19921;-72
2022/07/20 06:55:54;;;;;;;;;;;25.60;58.80;;;;;;5051250;28;20302;-72
2022/07/20 06:58:20;;;;;;;;;;;25.60;58.80;;;;;;5050522;28;19920;-72
2022/07/20 07:00:45;;;;;;;;;;;25.70;58.60;;;;;;5051828;28;19920;-72
2022/07/20 07:03:11;;;;;;;;;;;25.80;58.50;;;;;;5051293;28;20413;-72
2022/07/20 07:05:36;;;;;;;;;;;25.90;58.50;;;;;;5051844;28;19928;-72
2022/07/20 07:08:02;;;;;;;;;;;26.00;58.10;;;;;;5052328;28;19921;-73
2022/07/20 07:10:27;;;;;;;;;;;26.10;58.10;;;;;;5051943;28;20374;-72
2022/07/20 07:12:53;;;;;;;;;;;26.20;57.40;;;;;;5051401;28;20301;-72
2022/07/20 07:15:18;;;;;;;;;;;26.20;58.20;;;;;;5051689;28;20302;-72
2022/07/20 07:17:44;;;;;;;;;;;26.30;58.30;;;;;;5051264;28;20004;-72
2022/07/20 07:20:10;;;;;;;;;;;26.40;58.80;;;;;;5051753;28;20358;-72
2022/07/20 07:22:36;;;;;;;;;;;26.40;57.30;;;;;;5050106;28;19925;-72
2022/07/20 07:25:01;;;;;;;;;;;26.50;58.20;;;;;;5050969;28;19921;-73
2022/07/20 07:27:27;;;;;;;;;;;26.60;58.30;;;;;;5064402;28;19920;-72
2022/07/20 07:29:52;;;;;;;;;;;26.60;57.90;;;;;;5051542;28;19964;-72
2022/07/20 07:32:18;;;;;;;;;;;26.70;57.60;;;;;;5056476;28;20650;-72
2022/07/20 07:34:44;;;;;;;;;;;26.80;57.00;;;;;;5057824;28;19964;-72
2022/07/20 07:37:09;;;;;;;;;;;26.90;56.50;;;;;;5050579;28;19927;-72
2022/07/20 07:39:35;;;;;;;;;;;26.90;55.60;;;;;;5051200;28;19920;-73
2022/07/20 07:42:00;;;;;;;;;;;27.00;55.40;;;;;;5050966;28;20378;-72
2022/07/20 07:44:26;;;;;;;;;;;27.10;55.30;;;;;;5050853;28;20007;-72
2022/07/20 07:46:51;;;;;;;;;;;27.20;55.40;;;;;;5050768;28;20378;-72
2022/07/20 07:49:17;;;;;;;;;;;27.20;54.60;;;;;;5051126;28;19921;-73
2022/07/20 07:51:42;;;;;;;;;;;27.30;55.00;;;;;;5050552;28;19922;-73
2022/07/20 07:54:08;;;;;;;;;;;27.30;54.70;;;;;;5050822;28;19978;-72
2022/07/20 07:56:34;;;;;;;;;;;27.40;54.60;;;;;;5050514;28;19924;-73
2022/07/20 07:59:00;;;;;;;;;;;27.40;54.50;;;;;;5050508;28;19927;-73
2022/07/20 08:01:25;;;;;;;;;;;27.50;54.50;;;;;;5050353;28;19966;-72
2022/07/20 08:03:51;;;;;;;;;;;27.50;53.60;;;;;;5050664;28;19968;-73
2022/07/20 08:06:16;;;;;;;;;;;27.60;54.60;;;;;;5050199;28;20015;-73
2022/07/20 08:08:42;;;;;;;;;;;27.60;54.80;;;;;;5050498;28;19920;-73
2022/07/20 08:11:07;;;;;;;;;;;27.70;54.30;;;;;;5050288;28;19924;-73
2022/07/20 08:13:33;;;;;;;;;;;27.70;54.70;;;;;;5050532;28;19932;-72
2022/07/20 08:15:59;;;;;;;;;;;27.80;54.30;;;;;;5050049;28;20007;-74
2022/07/20 08:18:24;;;;;;;;;;;27.80;54.70;;;;;;5050208;28;20323;-73
2022/07/20 08:20:50;;;;;;;;;;;27.90;55.60;;;;;;5050356;28;19928;-73
2022/07/20 08:23:15;;;;;;;;;;;28.00;55.90;;;;;;5049904;28;20268;-73
2022/07/20 08:25:41;;;;;;;;;;;28.00;55.70;;;;;;5049918;28;20015;-73
2022/07/20 08:28:12;;;;;;;;;;;28.00;56.50;;;;;;5049259;28;19928;-73
2022/07/20 08:30:39;;;;;;;;;;;28.10;56.70;;;;;;5049865;28;19921;-72
2022/07/20 08:33:04;;;;;;;;;;;28.20;56.60;;;;;;5049901;28;19920;-73
2022/07/20 08:35:30;;;;;;;;;;;28.20;56.60;;;;;;5049039;28;19999;-73
2022/07/20 08:37:55;;;;;;;;;;;28.30;57.00;;;;;;5049762;28;19920;-73
2022/07/20 08:40:21;;;;;;;;;;;28.30;56.50;;;;;;5049390;28;19924;-73
2022/07/20 08:42:47;;;;;;;;;;;28.40;56.30;;;;;;5049774;28;20003;-72
2022/07/20 08:45:12;;;;;;;;;;;28.50;55.80;;;;;;5049370;28;19921;-73
2022/07/20 08:47:39;;;;;;;;;;;28.50;55.70;;;;;;5049170;28;20307;-73
2022/07/20 08:50:05;;;;;;;;;;;28.60;55.60;;;;;;5061917;28;20336;-73
2022/07/20 08:52:30;;;;;;;;;;;28.60;54.80;;;;;;5050122;28;20007;-72
2022/07/20 08:54:56;;;;;;;;;;;28.60;55.70;;;;;;5048456;28;19921;-73
2022/07/20 08:57:22;;;;;;;;;;;28.60;56.20;;;;;;5049493;28;20398;-73
2022/07/20 08:59:48;;;;;;;;;;;28.60;56.50;;;;;;5049465;28;19920;-72
2022/07/20 09:02:13;;;;;;;;;;;28.70;56.40;;;;;;5047866;28;19920;-73
2022/07/20 09:04:51;;;;;;;;;;;28.80;57.10;;;;;;5055747;28;19924;-73
2022/07/20 09:07:17;;;;;;;;;;;28.80;57.30;;;;;;5055390;28;20323;-73
2022/07/20 09:09:42;;;;;;;;;;;28.90;57.60;;;;;;5049679;28;20054;-72
2022/07/20 09:12:08;;;;;;;;;;;29.00;57.90;;;;;;5063225;28;20043;-73
2022/07/20 09:14:40;;;;;;;;;;;29.10;58.30;;;;;;5061701;28;19925;-73
2022/07/20 09:17:20;;;;;;;;;;;29.20;58.90;;;;;;5049226;28;20333;-73
2022/07/20 09:19:55;;;;;;;;;;;29.30;58.90;;;;;;5049520;28;20043;-72
2022/07/20 09:22:27;;;;;;;;;;;29.40;58.10;;;;;;5049155;28;19920;-73
2022/07/20 09:25:04;;;;;;;;;;;29.40;58.30;;;;;;5049360;28;20019;-73
2022/07/20 09:27:32;;;;;;;;;;;29.60;59.10;;;;;;5049292;28;19927;-72
2022/07/20 09:30:09;;;;;;;;;;;29.70;59.30;;;;;;5061962;28;20371;-72
2022/07/20 09:32:55;;;;;;;;;;;29.80;58.80;;;;;;5058221;28;19924;-73
2022/07/20 09:35:21;;;;;;;;;;;29.90;59.70;;;;;;5063093;28;19924;-73
2022/07/20 09:37:47;;;;;;;12.70;8.18;;;30.10;59.40;;;;;;5049171;28;20418;-73
2022/07/20 09:40:12;;;;;;;20.00;9.02;;;30.40;59.80;;;;;;5048330;28;20089;-73
2022/07/20 09:42:43;;;;;;;12.60;8.05;;;30.70;59.30;;;;;;5048560;28;20049;-72
2022/07/20 09:45:19;;;;;;;15.07;8.70;;;30.90;59.20;;;;;;5048645;28;20041;-72
2022/07/20 09:48:08;;;;;;;15.18;9.70;;;31.10;59.30;;;;;;5052248;28;20041;-73
2022/07/20 09:50:40;;;;;;;13.95;9.30;;;31.30;59.30;;;;;;5053177;28;20454;-72
2022/07/20 09:53:08;;;;;;;21.60;12.35;;;31.50;59.40;;;;;;5051846;28;20037;-73
2022/07/20 09:55:34;;;;;;;20.92;11.55;;;31.60;59.20;;;;;;5052432;28;20052;-73
2022/07/20 09:58:00;;;;;;;21.20;12.38;;;31.70;59.80;;;;;;5052480;28;20115;-72
2022/07/20 10:00:27;;;;;;;22.25;13.93;;;31.80;60.40;;;;;;5052632;28;20132;-72
2022/07/20 10:02:57;;;;;;;25.60;14.98;;;32.00;60.10;;;;;;5051808;28;20076;-72
2022/07/20 10:05:23;;;;;;;23.02;13.82;;;31.90;59.80;;;;;;5052213;28;20454;-73
2022/07/20 10:07:49;;;;;;;20.58;13.80;;;31.90;60.20;;;;;;5052177;28;20055;-73
2022/07/20 10:10:15;;;;;;;18.83;13.82;;;31.90;60.20;;;;;;5051964;28;20128;-73
2022/07/20 10:12:41;;;;;;;24.23;14.18;;;31.90;60.70;;;;;;5052250;28;20037;-73
2022/07/20 10:15:21;;;;;;;21.73;13.98;;;32.10;60.80;;;;;;5052085;28;20083;-73
2022/07/20 10:17:47;;;;;;;19.92;13.85;;;32.20;60.20;;;;;;5039595;28;20057;-73
2022/07/20 10:20:34;;;;;;;19.00;14.18;;;32.40;59.80;;;;;;5051822;28;20116;-73
2022/07/20 10:23:15;;;;;;;21.90;14.32;;;32.50;60.00;;;;;;5052146;28;20049;-73
2022/07/20 10:25:46;;;;;;;20.02;13.75;;;32.60;59.90;;;;;;5051761;28;20041;-73
2022/07/20 10:28:28;;;;;;;25.70;14.10;;;32.60;58.90;;;;;;5051640;28;20044;-73
2022/07/20 10:31:02;;;;;;;21.83;14.97;;;32.50;58.60;;;;;;5038949;28;20041;-72
2022/07/20 10:33:27;;;;;;;17.80;14.70;;;32.60;59.60;;;;;;5051803;28;20037;-73
2022/07/20 10:36:41;;;;;;;19.40;13.63;;;32.80;59.80;;;;;;5051550;28;20110;-73
2022/07/20 10:38:39;;;;;;;22.88;14.00;;;33.00;59.50;;;;;;5051916;28;20055;-73
2022/07/20 10:44:26;;;;;;;20.52;12.48;;;33.10;57.60;;;;;;5051605;28;20041;-73
2022/07/20 10:46:51;;;;;;;18.85;12.52;;;33.10;55.70;;;;;;5043154;28;20513;-73
2022/07/20 10:49:17;;;;;;;18.83;12.32;;;33.00;55.10;;;;;;5051758;28;20105;-73
2022/07/20 10:51:43;;;;;;;22.13;12.13;;;33.10;55.90;;;;;;5051375;28;20071;-73
2022/07/20 10:54:30;;;;;;;21.60;12.50;;;33.20;54.40;;;;;;5051379;28;20120;-74
2022/07/20 10:56:57;;;;;;;19.08;12.55;;;33.30;54.30;;;;;;5051132;28;20106;-73
2022/07/20 10:59:23;;;;;;;17.98;11.77;;;33.30;55.20;;;;;;5050542;28;20465;-73
2022/07/20 11:01:49;;;;;;;16.17;10.40;;;33.30;55.50;;;;;;5051634;28;20128;-73
2022/07/20 11:04:15;;;;;;;18.13;11.25;;;33.30;53.30;;;;;;5051135;28;20111;-73
2022/07/20 11:06:41;;;;;;;14.45;11.05;;;33.30;53.90;;;;;;5051866;28;20073;-73
2022/07/20 11:09:07;;;;;;;12.88;10.30;;;33.40;53.30;;;;;;5052032;28;20082;-73
2022/07/20 11:11:37;;;;;;;16.20;10.85;;;33.30;51.90;;;;;;5051209;28;20045;-74
2022/07/20 11:14:05;;;;;;;15.23;10.10;;;33.30;53.60;;;;;;5051837;28;20048;-73
2022/07/20 11:16:32;;;;;;;13.07;9.55;;;33.40;53.20;;;;;;5051013;28;20087;-73
2022/07/20 11:18:59;;;;;;;16.35;9.15;;;33.40;52.00;;;;;;5050372;28;20490;-74
2022/07/20 11:21:34;;;;;;;12.20;8.82;;;33.40;52.40;;;;;;5050329;28;20041;-74
2022/07/20 11:24:00;;;;;;;15.38;9.80;;;33.60;52.00;;;;;;5052659;28;20043;-73
2022/07/20 11:26:26;;;;;;;14.20;8.95;;;33.70;51.30;;;;;;5049834;28;20049;-73
2022/07/20 11:28:54;;;;;;;12.48;9.43;;;33.70;51.10;;;;;;5050069;28;20041;-73
2022/07/20 11:31:26;;;;;;;13.27;9.15;;;33.80;51.40;;;;;;5050595;28;20071;-73
2022/07/20 11:33:53;;;;;;;12.53;8.67;;;33.90;51.10;;;;;;5050460;28;20509;-73
2022/07/20 11:36:21;;;;;;;9.50;7.22;;;34.00;51.30;;;;;;5050516;28;20374;-73
2022/07/20 11:38:52;;;;;;;10.75;8.02;;;34.10;50.30;;;;;;5050173;28;20087;-73
2022/07/20 11:41:34;;;;;;;13.07;8.23;;;34.30;49.40;;;;;;5050255;28;20214;-73
2022/07/20 11:44:02;;;;;;;12.77;7.80;;;34.40;48.10;;;;;;5050439;28;20459;-73
2022/07/20 11:46:42;;;;;;;12.27;8.07;;;34.30;47.90;;;;;;5050360;28;20097;-74
2022/07/20 11:49:10;;;;;;;11.68;7.88;;;34.30;47.90;;;;;;5050299;28;20047;-73
2022/07/20 11:51:37;;;;;;;12.88;8.32;;;34.30;49.00;;;;;;5050177;28;20080;-73
2022/07/20 11:54:06;;;;;;;11.43;7.05;;;34.40;48.30;;;;;;5050386;28;20090;-73
2022/07/20 11:56:34;;;;;;;13.18;7.85;;;34.50;48.50;;;;;;5055401;28;20095;-74
2022/07/20 11:59:01;;;;;;;11.18;7.40;;;34.70;49.40;;;;;;5069499;28;20049;-74
2022/07/20 12:01:31;;;;;;;9.80;7.45;;;34.90;48.30;;;;;;5068538;28;20087;-73
2022/07/20 12:04:02;;;;;;;10.50;7.55;;;34.90;48.30;;;;;;5056575;28;20072;-73
2022/07/20 12:06:30;;;;;;;9.50;7.55;;;34.90;47.90;;;;;;5056752;28;20057;-74
2022/07/20 12:09:18;;;;;;;11.18;7.45;;;35.00;48.40;;;;;;5055210;28;20045;-73
2022/07/20 12:11:59;;;;;;;10.18;7.57;;;35.10;48.80;;;;;;5049987;28;20549;-74
2022/07/20 12:14:45;;;;;;;10.85;7.20;;;35.00;47.00;;;;;;5055240;28;20056;-74
2022/07/20 12:17:19;;;;;;;12.55;7.05;;;35.00;47.60;;;;;;5066944;28;20118;-73
2022/07/20 12:19:47;;;;;;;12.00;7.38;;;35.10;47.90;;;;;;5058870;28;20071;-73
2022/07/20 12:22:18;;;;;;;11.55;7.30;;;35.30;48.10;;;;;;5065660;28;20064;-74
2022/07/20 12:24:56;;;;;;;11.75;7.38;;;35.30;48.50;;;;;;5049593;28;20040;-73
2022/07/20 12:27:24;;;;;;;9.60;6.57;;;35.30;47.80;;;;;;5049405;28;20041;-73
2022/07/20 12:29:51;;;;;;;12.27;7.13;;;35.30;49.00;;;;;;5049295;28;20125;-74
2022/07/20 12:32:28;;;;;;;12.50;6.45;;;35.60;50.10;;;;;;5048929;28;20036;-73
2022/07/20 12:34:54;;;;;;;13.35;6.47;;;35.90;48.70;;;;;;5049318;28;20082;-74
2022/07/20 12:37:22;;;;;;;12.68;6.70;;;36.00;48.80;;;;;;5049946;28;20079;-74
2022/07/20 12:39:53;;;;;;;10.80;7.13;;;36.10;49.00;;;;;;5049052;28;20072;-73
2022/07/20 12:42:26;;;;;;;10.27;7.03;;;35.90;47.70;;;;;;5049314;28;20495;-73
2022/07/20 12:45:04;;;;;;;13.80;6.43;;;35.80;47.80;;;;;;5049348;28;20459;-73
2022/07/20 12:47:30;;;;;;;11.88;6.18;;;35.70;48.00;;;;;;5048915;28;20166;-73
2022/07/20 12:49:56;;;;;;;10.13;6.72;;;35.70;48.00;;;;;;5049014;28;20105;-73
2022/07/20 12:52:21;;;;;;;12.25;6.50;;;35.80;48.60;;;;;;5049843;28;20045;-74
2022/07/20 12:54:47;;;;;;;12.38;6.30;;;35.90;48.10;;;;;;5049526;28;20510;-74
2022/07/20 12:57:19;;;;;;;9.35;5.80;;;35.80;46.90;;;;;;5049441;28;20045;-73
2022/07/20 12:59:46;;;;;;;7.38;5.32;;;35.80;47.40;;;;;;5049339;28;20040;-73
2022/07/20 13:02:12;;;;;;;8.00;5.13;;;35.80;47.80;;;;;;5049186;28;20075;-74
2022/07/20 13:04:39;;;;;;;8.82;5.10;;;36.00;47.40;;;;;;5062400;28;20044;-74
2022/07/20 13:07:05;;;;;;;8.57;5.07;;;36.20;47.20;;;;;;5049099;28;20449;-73
2022/07/20 13:09:31;;;;;;;8.52;4.57;;;36.40;46.90;;;;;;5061655;28;20499;-73
2022/07/20 13:11:56;;;;;;;8.43;4.25;;;36.50;47.20;;;;;;5049226;28;20048;-74
2022/07/20 13:14:24;;;;;;;7.95;4.68;;;36.70;47.30;;;;;;5055314;28;20040;-73
2022/07/20 13:16:53;;;;;;;9.13;5.18;;;36.80;46.30;;;;;;5055578;28;20095;-73
2022/07/20 13:19:19;;;;;;;10.02;4.65;;;36.80;46.60;;;;;;5055950;28;20399;-74
2022/07/20 13:21:45;;;;;;;10.35;4.47;;;36.80;47.10;;;;;;5057370;28;20411;-74
2022/07/20 13:24:15;;;;;;;12.63;4.50;;;36.90;47.50;;;;;;5061493;28;20037;-73
2022/07/20 13:26:42;;;;;;;7.32;4.10;;;37.10;47.30;;;;;;5072576;28;20052;-73
2022/07/20 13:29:08;;;;;;;8.30;4.22;;;37.20;46.10;;;;;;5046236;28;20127;-73
2022/07/20 13:31:34;;;;;;;5.95;4.68;;;37.30;46.50;;;;;;5071865;28;20040;-74
2022/07/20 13:34:01;;;;;;;6.90;4.25;;;37.40;45.90;;;;;;5065077;28;20053;-73
2022/07/20 13:36:27;;;;;;;7.25;3.95;;;37.50;46.50;;;;;;5064503;28;20088;-73
2022/07/20 13:38:53;;;;;;;7.75;3.85;;;37.70;46.50;;;;;;5071453;28;20067;-73
2022/07/20 13:41:21;;;;;;;7.63;4.55;;;37.80;45.30;;;;;;5058112;28;20116;-74
2022/07/20 13:43:48;;;;;;;7.38;4.30;;;38.00;45.00;;;;;;5059974;28;20495;-73
2022/07/20 13:46:13;;;;;;;7.32;4.75;;;38.00;43.60;;;;;;5071822;28;20461;-74
2022/07/20 13:48:39;;;;;;;8.73;4.80;;;37.70;42.80;;;;;;5065206;28;20041;-74